createdAt,value
2018-10-04T00:00:11.587Z,18.5
2018-10-04T00:01:00.833Z,18.5
2018-10-04T00:01:50.824Z,18.5
2018-10-04T00:02:40.873Z,18.5
2018-10-04T00:03:31.584Z,18.5
2018-10-04T00:04:21.838Z,18.5
2018-10-04T00:05:11.970Z,18.5
2018-10-04T00:06:01.193Z,18.5
2018-10-04T00:06:51.241Z,18.5
2018-10-04T00:25:13.684Z,18.4
2018-10-04T00:26:02.417Z,18.5
2018-10-04T00:26:53.060Z,18.4
2018-10-04T00:27:41.874Z,18.5
2018-10-04T00:28:32.282Z,18.4
2018-10-04T00:29:23.142Z,18.4
2018-10-04T00:30:12.929Z,18.4
2018-10-04T00:31:03.800Z,18.4
2018-10-04T00:31:54.217Z,18.4
2018-10-04T00:32:43.077Z,18.4
2018-10-04T00:33:32.897Z,18.4
2018-10-04T00:34:23.793Z,18.4
2018-10-04T00:35:13.686Z,18.4
2018-10-04T00:36:03.029Z,18.4
2018-10-04T00:36:53.951Z,18.4
2018-10-04T00:37:43.872Z,18.4
2018-10-04T00:38:33.804Z,18.4
2018-10-04T00:39:24.127Z,18.4
2018-10-04T00:40:13.611Z,18.4
2018-10-04T00:41:03.698Z,18.4
2018-10-04T00:41:54.610Z,18.4
2018-10-04T00:42:44.402Z,18.4
2018-10-04T00:43:33.871Z,18.4
2018-10-04T00:44:23.686Z,18.4
2018-10-04T00:45:14.111Z,18.4
2018-10-04T00:46:05.654Z,18.4
2018-10-04T00:46:53.645Z,18.4
2018-10-04T00:47:42.956Z,18.4
2018-10-04T00:48:34.311Z,18.4
2018-10-04T00:49:24.367Z,18.4
2018-10-04T00:50:14.713Z,18.4
2018-10-04T00:51:03.668Z,18.4
2018-10-04T00:51:54.657Z,18.4
2018-10-04T00:52:44.630Z,18.4
2018-10-04T00:53:35.280Z,18.4
2018-10-04T00:54:24.743Z,18.4
2018-10-04T00:55:15.675Z,18.4
2018-10-04T00:56:04.333Z,18.4
2018-10-04T00:56:55.213Z,18.4
2018-10-04T00:57:45.055Z,18.4
2018-10-04T00:58:35.050Z,18.4
2018-10-04T00:59:24.588Z,18.4
2018-10-04T01:00:15.756Z,18.4
2018-10-04T01:01:04.960Z,18.4
2018-10-04T01:01:55.052Z,18.4
2018-10-04T01:02:45.370Z,18.4
2018-10-04T01:03:35.429Z,18.4
2018-10-04T01:04:25.528Z,18.4
2018-10-04T01:05:17.160Z,18.4
2018-10-04T01:06:06.170Z,18.4
2018-10-04T01:06:55.667Z,18.4
2018-10-04T01:07:45.447Z,18.4
2018-10-04T01:08:36.088Z,18.4
2018-10-04T01:09:26.160Z,18.4
2018-10-04T01:10:16.462Z,18.4
2018-10-04T01:11:07.048Z,18.4
2018-10-04T01:11:55.050Z,18.4
2018-10-04T01:12:47.684Z,18.4
2018-10-04T01:13:36.691Z,18.4
2018-10-04T01:14:26.477Z,18.4
2018-10-04T01:15:15.450Z,18.4
2018-10-04T01:16:07.725Z,18.4
2018-10-04T01:16:56.596Z,18.4
2018-10-04T01:17:46.674Z,18.4
2018-10-04T01:18:37.010Z,18.4
2018-10-04T01:19:26.804Z,18.4
2018-10-04T01:20:17.729Z,18.4
2018-10-04T01:21:06.979Z,18.4
2018-10-04T01:21:56.420Z,18.4
2018-10-04T01:22:48.232Z,18.4
2018-10-04T01:23:36.561Z,18.4
2018-10-04T01:24:27.469Z,18.4
2018-10-04T01:25:17.259Z,18.4
2018-10-04T01:26:06.921Z,18.4
2018-10-04T01:26:57.966Z,18.4
2018-10-04T01:27:47.729Z,18.4
2018-10-04T01:28:38.011Z,18.4
2018-10-04T01:29:27.869Z,18.4
2018-10-04T01:30:18.481Z,18.4
2018-10-04T01:31:06.811Z,18.4
2018-10-04T01:31:59.138Z,18.4
2018-10-04T01:32:48.644Z,18.4
2018-10-04T01:33:37.256Z,18.4
2018-10-04T01:34:28.460Z,18.4
2018-10-04T01:35:17.756Z,18.4
2018-10-04T01:36:07.746Z,18.4
2018-10-04T01:36:58.691Z,18.4
2018-10-04T01:37:48.439Z,18.3
2018-10-04T01:38:38.225Z,18.4
2018-10-04T01:39:28.323Z,18.4
2018-10-04T01:40:18.315Z,18.4
2018-10-04T01:41:09.301Z,18.4
2018-10-04T01:41:58.100Z,18.4
2018-10-04T01:42:47.975Z,18.4
2018-10-04T01:43:39.171Z,18.4
2018-10-04T01:44:29.698Z,18.4
2018-10-04T01:45:18.693Z,18.4
2018-10-04T01:46:09.060Z,18.4
2018-10-04T01:46:59.102Z,18.4
2018-10-04T01:47:48.875Z,18.4
2018-10-04T01:48:39.497Z,18.4
2018-10-04T01:49:29.049Z,18.4
2018-10-04T01:50:18.358Z,18.4
2018-10-04T01:51:09.252Z,18.4
2018-10-04T01:51:58.727Z,18.4
2018-10-04T01:52:49.092Z,18.3
2018-10-04T01:53:40.184Z,18.4
2018-10-04T01:54:29.747Z,18.3
2018-10-04T01:55:19.214Z,18.4
2018-10-04T01:56:08.817Z,18.4
2018-10-04T01:57:00.447Z,18.3
2018-10-04T01:57:49.134Z,18.3
2018-10-04T01:58:39.719Z,18.3
2018-10-04T01:59:30.061Z,18.3
2018-10-04T02:00:19.804Z,18.3
2018-10-04T02:01:09.604Z,18.3
2018-10-04T02:01:59.609Z,18.3
2018-10-04T02:02:50.031Z,18.3
2018-10-04T02:03:40.904Z,18.3
2018-10-04T02:04:30.921Z,18.3
2018-10-04T02:05:20.243Z,18.3
2018-10-04T02:06:10.332Z,18.3
2018-10-04T02:06:59.711Z,18.3
2018-10-04T02:07:49.884Z,18.3
2018-10-04T02:08:40.211Z,18.3
2018-10-04T02:09:30.003Z,18.3
2018-10-04T02:10:20.606Z,18.3
2018-10-04T02:11:10.128Z,18.3
2018-10-04T02:12:01.028Z,18.3
2018-10-04T02:12:50.258Z,18.3
2018-10-04T02:13:40.544Z,18.3
2018-10-04T02:14:31.395Z,18.3
2018-10-04T02:15:20.676Z,18.3
2018-10-04T02:16:10.216Z,18.3
2018-10-04T02:17:01.462Z,18.3
2018-10-04T02:17:51.145Z,18.3
2018-10-04T02:18:40.458Z,18.3
2018-10-04T02:19:30.543Z,18.3
2018-10-04T02:20:21.485Z,18.3
2018-10-04T02:21:09.881Z,18.3
2018-10-04T02:22:01.705Z,18.3
2018-10-04T02:22:50.519Z,18.3
2018-10-04T02:23:40.751Z,18.3
2018-10-04T02:24:32.038Z,18.3
2018-10-04T02:25:20.970Z,18.3
2018-10-04T02:26:10.782Z,18.3
2018-10-04T02:27:01.810Z,18.3
2018-10-04T02:27:51.570Z,18.3
2018-10-04T02:28:40.985Z,18.3
2018-10-04T02:29:30.999Z,18.3
2018-10-04T02:30:20.857Z,18.3
2018-10-04T02:31:11.507Z,18.3
2018-10-04T02:32:01.172Z,18.3
2018-10-04T02:32:51.855Z,18.3
2018-10-04T02:33:41.827Z,18.3
2018-10-04T02:34:31.901Z,18.3
2018-10-04T02:35:21.357Z,18.3
2018-10-04T02:36:11.477Z,18.3
2018-10-04T02:37:01.285Z,18.3
2018-10-04T02:37:52.247Z,18.3
2018-10-04T02:38:41.939Z,18.3
2018-10-04T02:39:32.822Z,18.3
2018-10-04T02:40:22.362Z,18.3
2018-10-04T02:41:12.435Z,18.3
2018-10-04T02:42:02.470Z,18.3
2018-10-04T02:42:52.428Z,18.3
2018-10-04T02:43:42.588Z,18.3
2018-10-04T02:44:32.620Z,18.3
2018-10-04T02:45:23.498Z,18.3
2018-10-04T02:46:12.199Z,18.3
2018-10-04T02:47:02.747Z,18.3
2018-10-04T02:47:52.749Z,18.3
2018-10-04T02:48:43.364Z,18.3
2018-10-04T02:49:32.458Z,18.3
2018-10-04T02:50:22.524Z,18.3
2018-10-04T02:51:12.486Z,18.3
2018-10-04T02:52:02.950Z,18.3
2018-10-04T02:52:52.959Z,18.3
2018-10-04T02:53:43.847Z,18.3
2018-10-04T02:54:32.831Z,18.3
2018-10-04T02:55:23.399Z,18.3
2018-10-04T02:56:13.199Z,18.3
2018-10-04T02:57:03.359Z,18.3
2018-10-04T02:57:53.954Z,18.3
2018-10-04T02:58:43.011Z,18.3
2018-10-04T02:59:33.807Z,18.3
2018-10-04T03:00:24.921Z,18.3
2018-10-04T03:01:14.199Z,18.3
2018-10-04T03:02:04.241Z,18.3
2018-10-04T03:02:53.758Z,18.3
2018-10-04T03:03:43.444Z,18.3
2018-10-04T03:04:33.008Z,18.3
2018-10-04T03:05:24.243Z,18.3
2018-10-04T03:06:13.953Z,18.3
2018-10-04T03:07:03.858Z,18.3
2018-10-04T03:07:54.640Z,18.3
2018-10-04T03:08:43.986Z,18.3
2018-10-04T03:09:33.878Z,18.3
2018-10-04T03:10:24.597Z,18.3
2018-10-04T03:11:15.110Z,18.2
2018-10-04T03:12:04.368Z,18.3
2018-10-04T03:12:54.175Z,18.3
2018-10-04T03:13:44.475Z,18.2
2018-10-04T03:14:35.168Z,18.3
2018-10-04T03:15:25.241Z,18.2
2018-10-04T03:16:15.508Z,18.2
2018-10-04T03:17:04.470Z,18.2
2018-10-04T03:17:54.850Z,18.2
2018-10-04T03:18:44.487Z,18.3
2018-10-04T03:19:35.995Z,18.2
2018-10-04T03:20:26.143Z,18.2
2018-10-04T03:21:15.065Z,18.2
2018-10-04T03:22:05.414Z,18.2
2018-10-04T03:22:55.226Z,18.2
2018-10-04T03:23:45.187Z,18.2
2018-10-04T03:24:36.446Z,18.2
2018-10-04T03:25:25.043Z,18.2
2018-10-04T03:26:16.244Z,18.2
2018-10-04T03:27:06.118Z,18.2
2018-10-04T03:27:55.716Z,18.2
2018-10-04T03:28:45.526Z,18.2
2018-10-04T03:29:36.191Z,18.2
2018-10-04T03:30:27.784Z,18.2
2018-10-04T03:31:15.557Z,18.2
2018-10-04T03:32:06.434Z,18.2
2018-10-04T03:32:56.454Z,18.2
2018-10-04T03:33:46.850Z,18.2
2018-10-04T03:34:37.176Z,18.2
2018-10-04T03:35:27.774Z,18.2
2018-10-04T03:36:16.596Z,18.1
2018-10-04T03:37:06.714Z,18.2
2018-10-04T03:37:56.798Z,18.2
2018-10-04T03:38:46.831Z,18.2
2018-10-04T03:39:36.310Z,18.2
2018-10-04T03:40:26.439Z,18.2
2018-10-04T03:41:17.551Z,18.1
2018-10-04T03:42:07.097Z,18.2
2018-10-04T03:42:57.104Z,18.1
2018-10-04T03:43:46.949Z,18.1
2018-10-04T03:44:37.580Z,18.2
2018-10-04T03:45:27.303Z,18.2
2018-10-04T03:46:17.211Z,18.1
2018-10-04T03:47:06.042Z,18.1
2018-10-04T03:47:58.314Z,18.1
2018-10-04T03:48:47.401Z,18.1
2018-10-04T03:49:37.059Z,17.9
2018-10-04T03:50:27.430Z,17.4
2018-10-04T03:51:18.330Z,17.1
2018-10-04T03:52:06.738Z,17.2
2018-10-04T03:52:57.715Z,17.3
2018-10-04T03:53:48.102Z,17.4
2018-10-04T03:54:37.293Z,17.4
2018-10-04T03:55:27.905Z,17.4
2018-10-04T03:56:17.566Z,17.5
2018-10-04T03:57:07.764Z,17.5
2018-10-04T03:57:57.777Z,17.6
2018-10-04T03:58:48.180Z,17.6
2018-10-04T03:59:38.063Z,17.6
2018-10-04T04:00:27.607Z,17.6
2018-10-04T04:01:18.567Z,17.6
2018-10-04T04:02:08.605Z,17.7
2018-10-04T04:02:57.476Z,17.7
2018-10-04T04:03:48.075Z,17.7
2018-10-04T04:04:38.777Z,17.7
2018-10-04T04:05:28.654Z,17.7
2018-10-04T04:06:18.654Z,17.7
2018-10-04T04:07:08.126Z,17.7
2018-10-04T04:07:58.399Z,17.7
2018-10-04T04:08:49.393Z,17.7
2018-10-04T04:09:39.446Z,17.7
2018-10-04T04:10:29.736Z,17.7
2018-10-04T04:11:18.379Z,17.7
2018-10-04T04:12:10.189Z,17.7
2018-10-04T04:13:00.152Z,17.8
2018-10-04T04:13:49.382Z,17.8
2018-10-04T04:14:39.428Z,17.8
2018-10-04T04:15:29.461Z,17.8
2018-10-04T04:16:19.816Z,17.8
2018-10-04T04:17:10.205Z,17.8
2018-10-04T04:17:59.908Z,17.8
2018-10-04T04:18:50.001Z,17.7
2018-10-04T04:19:40.958Z,17.7
2018-10-04T04:20:30.411Z,17.8
2018-10-04T04:21:19.889Z,17.7
2018-10-04T04:22:11.121Z,17.7
2018-10-04T04:23:01.226Z,17.7
2018-10-04T04:23:50.435Z,17.7
2018-10-04T04:24:40.663Z,17.7
2018-10-04T04:25:31.088Z,17.7
2018-10-04T04:26:20.903Z,17.7
2018-10-04T04:27:11.038Z,17.7
2018-10-04T04:28:00.665Z,17.7
2018-10-04T04:28:50.471Z,17.7
2018-10-04T04:29:41.373Z,17.7
2018-10-04T04:30:30.674Z,17.7
2018-10-04T04:31:20.680Z,17.7
2018-10-04T04:32:11.845Z,17.7
2018-10-04T04:33:01.078Z,17.7
2018-10-04T04:33:49.730Z,17.7
2018-10-04T04:34:41.733Z,17.7
2018-10-04T04:35:30.965Z,17.7
2018-10-04T04:36:21.847Z,17.6
2018-10-04T04:54:28.933Z,17.6
2018-10-04T04:55:17.518Z,17.6
2018-10-04T04:56:07.874Z,17.6
2018-10-04T04:56:57.995Z,17.6
2018-10-04T04:57:47.726Z,17.6
2018-10-04T04:58:37.209Z,17.6
2018-10-04T04:59:28.313Z,17.6
2018-10-04T05:00:17.899Z,17.6
2018-10-04T05:01:07.966Z,17.6
2018-10-04T05:01:58.610Z,17.6
2018-10-04T05:02:48.968Z,17.6
2018-10-04T05:03:37.635Z,17.6
2018-10-04T05:04:29.063Z,17.6
2018-10-04T05:05:18.225Z,17.6
2018-10-04T05:06:10.611Z,17.6
2018-10-04T05:06:59.308Z,17.6
2018-10-04T05:07:47.641Z,17.6
2018-10-04T05:08:38.870Z,17.6
2018-10-04T05:09:28.918Z,17.6
2018-10-04T05:10:18.669Z,17.6
2018-10-04T05:11:09.190Z,17.6
2018-10-04T05:11:59.353Z,17.6
2018-10-04T05:12:48.792Z,17.6
2018-10-04T05:13:39.147Z,17.6
2018-10-04T05:14:29.557Z,17.6
2018-10-04T05:15:18.999Z,17.6
2018-10-04T05:16:10.517Z,17.6
2018-10-04T05:16:59.400Z,17.6
2018-10-04T05:17:47.756Z,17.6
2018-10-04T05:18:39.822Z,17.6
2018-10-04T05:19:29.609Z,17.6
2018-10-04T05:20:19.083Z,17.6
2018-10-04T05:21:10.305Z,17.6
2018-10-04T05:21:59.531Z,17.5
2018-10-04T05:22:50.194Z,17.6
2018-10-04T05:23:40.443Z,17.6
2018-10-04T05:24:29.684Z,17.6
2018-10-04T05:25:20.541Z,17.6
2018-10-04T05:26:09.811Z,17.6
2018-10-04T05:27:00.468Z,17.6
2018-10-04T05:27:51.070Z,17.6
2018-10-04T05:28:40.278Z,17.6
2018-10-04T05:29:31.182Z,17.6
2018-10-04T05:30:20.425Z,17.6
2018-10-04T05:31:09.094Z,17.6
2018-10-04T05:32:01.046Z,17.6
2018-10-04T05:32:50.315Z,17.6
2018-10-04T05:33:41.217Z,17.6
2018-10-04T05:34:30.390Z,17.6
2018-10-04T05:35:20.507Z,17.6
2018-10-04T05:36:10.563Z,17.6
2018-10-04T05:37:03.230Z,17.6
2018-10-04T05:37:50.927Z,17.6
2018-10-04T05:38:40.737Z,17.5
2018-10-04T05:39:31.104Z,17.6
2018-10-04T05:40:21.607Z,17.6
2018-10-04T05:41:11.769Z,17.6
2018-10-04T05:42:00.950Z,17.5
2018-10-04T05:42:51.826Z,17.6
2018-10-04T05:43:40.544Z,17.6
2018-10-04T05:44:31.124Z,17.5
2018-10-04T05:45:23.374Z,17.6
2018-10-04T05:46:11.270Z,17.6
2018-10-04T05:47:01.637Z,17.6
2018-10-04T05:47:52.206Z,17.6
2018-10-04T05:48:41.736Z,17.5
2018-10-04T05:49:31.579Z,17.5
2018-10-04T05:50:22.292Z,17.6
2018-10-04T05:51:12.509Z,17.6
2018-10-04T05:52:02.299Z,17.6
2018-10-04T05:52:53.427Z,17.6
2018-10-04T05:53:42.473Z,17.6
2018-10-04T05:54:31.924Z,17.6
2018-10-04T05:55:22.734Z,17.6
2018-10-04T05:56:12.619Z,17.6
2018-10-04T05:57:02.660Z,17.6
2018-10-04T05:57:51.926Z,17.6
2018-10-04T05:58:42.748Z,17.6
2018-10-04T05:59:33.340Z,17.6
2018-10-04T06:00:22.614Z,17.6
2018-10-04T06:01:12.342Z,17.6
2018-10-04T06:02:03.269Z,17.6
2018-10-04T06:02:52.607Z,17.6
2018-10-04T06:03:43.118Z,17.6
2018-10-04T06:04:33.535Z,17.6
2018-10-04T06:05:24.419Z,17.6
2018-10-04T06:06:13.893Z,17.6
2018-10-04T06:07:02.830Z,17.6
2018-10-04T06:07:53.132Z,17.6
2018-10-04T06:08:42.662Z,17.6
2018-10-04T06:09:33.035Z,17.6
2018-10-04T06:10:23.379Z,17.6
2018-10-04T06:11:13.145Z,17.6
2018-10-04T06:12:03.770Z,17.6
2018-10-04T06:12:53.807Z,17.6
2018-10-04T06:13:43.847Z,17.6
2018-10-04T06:14:32.796Z,17.6
2018-10-04T06:15:25.981Z,17.6
2018-10-04T06:16:14.000Z,17.6
2018-10-04T06:17:03.564Z,17.6
2018-10-04T06:17:53.916Z,17.6
2018-10-04T06:18:43.934Z,17.6
2018-10-04T06:19:34.256Z,17.6
2018-10-04T06:20:24.629Z,17.6
2018-10-04T06:21:14.404Z,17.6
2018-10-04T06:22:06.475Z,17.6
2018-10-04T06:22:53.957Z,17.6
2018-10-04T06:23:44.032Z,17.6
2018-10-04T06:24:34.669Z,17.6
2018-10-04T06:25:24.809Z,17.6
2018-10-04T06:26:15.064Z,17.6
2018-10-04T06:27:04.925Z,17.6
2018-10-04T06:27:54.383Z,17.6
2018-10-04T06:28:46.146Z,17.6
2018-10-04T06:29:34.841Z,17.6
2018-10-04T06:30:25.054Z,17.6
2018-10-04T06:31:15.153Z,17.6
2018-10-04T06:32:05.155Z,17.6
2018-10-04T06:32:54.758Z,17.6
2018-10-04T06:33:45.058Z,17.6
2018-10-04T06:34:34.891Z,17.6
2018-10-04T06:35:27.642Z,17.6
2018-10-04T06:36:15.536Z,17.6
2018-10-04T06:37:06.198Z,17.6
2018-10-04T06:37:55.343Z,17.6
2018-10-04T06:38:45.141Z,17.6
2018-10-04T06:39:35.824Z,17.6
2018-10-04T06:40:25.652Z,17.6
2018-10-04T06:41:15.628Z,17.6
2018-10-04T06:42:06.013Z,17.6
2018-10-04T06:42:55.703Z,17.6
2018-10-04T06:43:45.027Z,17.6
2018-10-04T06:44:36.146Z,17.6
2018-10-04T06:45:25.073Z,17.6
2018-10-04T06:46:16.278Z,17.6
2018-10-04T06:47:05.781Z,17.6
2018-10-04T06:47:56.106Z,17.6
2018-10-04T06:48:45.902Z,17.6
2018-10-04T06:49:36.207Z,17.7
2018-10-04T06:50:26.995Z,17.6
2018-10-04T06:51:15.812Z,17.7
2018-10-04T06:52:06.455Z,17.6
2018-10-04T06:52:56.432Z,17.7
2018-10-04T06:53:46.270Z,17.6
2018-10-04T06:54:36.330Z,17.7
2018-10-04T06:55:26.361Z,17.7
2018-10-04T06:56:16.310Z,17.7
2018-10-04T06:57:07.063Z,17.7
2018-10-04T06:57:58.562Z,17.7
2018-10-04T06:58:46.706Z,17.7
2018-10-04T06:59:36.970Z,17.7
2018-10-04T07:00:27.278Z,17.7
2018-10-04T07:01:16.849Z,17.7
2018-10-04T07:02:07.006Z,17.7
2018-10-04T07:02:57.809Z,17.7
2018-10-04T07:03:48.612Z,17.7
2018-10-04T07:04:37.052Z,17.7
2018-10-04T07:05:27.427Z,17.7
2018-10-04T07:06:18.071Z,17.7
2018-10-04T07:07:07.064Z,17.7
2018-10-04T07:07:58.171Z,17.7
2018-10-04T07:08:47.659Z,17.7
2018-10-04T07:09:38.019Z,17.7
2018-10-04T07:10:27.571Z,17.7
2018-10-04T07:11:18.195Z,17.7
2018-10-04T07:12:08.224Z,17.7
2018-10-04T07:12:57.433Z,17.7
2018-10-04T07:13:47.749Z,17.7
2018-10-04T07:14:37.864Z,17.7
2018-10-04T07:15:27.601Z,17.7
2018-10-04T07:16:17.374Z,17.7
2018-10-04T07:17:07.774Z,17.7
2018-10-04T07:17:57.618Z,17.7
2018-10-04T07:18:47.833Z,17.7
2018-10-04T07:19:37.879Z,17.7
2018-10-04T07:20:28.836Z,17.8
2018-10-04T07:21:18.891Z,17.7
2018-10-04T07:22:09.191Z,17.7
2018-10-04T07:22:58.974Z,17.7
2018-10-04T07:23:49.070Z,17.7
2018-10-04T07:24:39.119Z,17.7
2018-10-04T07:25:29.236Z,17.7
2018-10-04T07:26:18.096Z,17.7
2018-10-04T07:27:09.044Z,17.7
2018-10-04T07:27:59.376Z,17.7
2018-10-04T07:28:49.214Z,17.8
2018-10-04T07:29:38.679Z,17.7
2018-10-04T07:30:28.990Z,17.7
2018-10-04T07:31:19.564Z,17.7
2018-10-04T07:32:09.696Z,17.8
2018-10-04T07:32:59.778Z,17.8
2018-10-04T07:33:50.145Z,17.8
2018-10-04T07:34:39.856Z,17.8
2018-10-04T07:35:29.353Z,17.8
2018-10-04T07:36:19.444Z,17.8
2018-10-04T07:37:11.090Z,17.8
2018-10-04T07:37:59.212Z,17.8
2018-10-04T07:38:48.743Z,17.8
2018-10-04T07:39:39.975Z,17.8
2018-10-04T07:40:30.022Z,17.8
2018-10-04T07:41:19.562Z,17.8
2018-10-04T07:42:12.707Z,17.8
2018-10-04T07:43:00.477Z,17.8
2018-10-04T07:43:50.002Z,17.8
2018-10-04T07:44:40.814Z,17.8
2018-10-04T07:45:29.834Z,17.8
2018-10-04T07:46:20.172Z,17.8
2018-10-04T07:47:09.767Z,17.8
2018-10-04T07:48:00.860Z,17.8
2018-10-04T07:48:51.400Z,17.8
2018-10-04T07:49:41.239Z,17.8
2018-10-04T07:50:30.679Z,17.8
2018-10-04T07:51:20.891Z,17.8
2018-10-04T07:52:10.920Z,17.8
2018-10-04T07:53:00.982Z,17.8
2018-10-04T07:53:51.232Z,17.8
2018-10-04T07:54:41.314Z,17.8
2018-10-04T07:55:30.729Z,17.8
2018-10-04T07:56:20.729Z,17.8
2018-10-04T07:57:10.466Z,17.8
2018-10-04T07:58:00.529Z,17.8
2018-10-04T07:58:50.687Z,17.8
2018-10-04T07:59:40.665Z,17.8
2018-10-04T08:00:31.291Z,17.8
2018-10-04T08:01:21.623Z,17.8
2018-10-04T08:02:11.938Z,17.8
2018-10-04T08:03:01.446Z,17.8
2018-10-04T08:03:51.171Z,17.8
2018-10-04T08:04:40.961Z,17.8
2018-10-04T08:05:32.113Z,17.8
2018-10-04T08:06:25.453Z,17.8
2018-10-04T08:07:11.171Z,17.8
2018-10-04T08:08:02.358Z,17.8
2018-10-04T08:08:51.987Z,17.8
2018-10-04T08:09:42.038Z,17.8
2018-10-04T08:10:31.450Z,17.8
2018-10-04T08:11:22.053Z,17.8
2018-10-04T08:12:11.803Z,17.8
2018-10-04T08:13:02.959Z,17.8
2018-10-04T08:13:52.246Z,17.8
2018-10-04T08:14:42.600Z,17.8
2018-10-04T08:15:33.399Z,17.8
2018-10-04T08:16:22.140Z,17.8
2018-10-04T08:17:12.184Z,17.8
2018-10-04T08:18:02.267Z,17.8
2018-10-04T08:18:52.642Z,17.8
2018-10-04T08:19:41.215Z,17.8
2018-10-04T08:20:32.467Z,17.8
2018-10-04T08:21:23.507Z,17.8
2018-10-04T08:22:13.412Z,17.8
2018-10-04T08:23:03.190Z,17.8
2018-10-04T08:23:52.812Z,17.8
2018-10-04T08:24:42.830Z,17.8
2018-10-04T08:25:33.351Z,17.8
2018-10-04T08:26:22.829Z,17.8
2018-10-04T08:27:13.237Z,17.8
2018-10-04T08:28:03.289Z,17.8
2018-10-04T08:28:53.549Z,17.8
2018-10-04T08:29:44.035Z,17.8
2018-10-04T08:30:33.764Z,17.8
2018-10-04T08:31:24.144Z,17.8
2018-10-04T08:32:13.334Z,17.8
2018-10-04T08:33:03.659Z,17.8
2018-10-04T08:33:54.016Z,17.8
2018-10-04T08:34:44.302Z,17.8
2018-10-04T08:35:34.620Z,17.8
2018-10-04T08:36:23.887Z,17.8
2018-10-04T08:37:14.551Z,17.8
2018-10-04T08:38:04.899Z,17.8
2018-10-04T08:38:54.387Z,17.8
2018-10-04T08:39:45.349Z,17.8
2018-10-04T08:40:34.291Z,17.8
2018-10-04T08:41:23.376Z,17.8
2018-10-04T08:42:15.631Z,17.8
2018-10-04T08:43:04.949Z,17.8
2018-10-04T08:43:53.891Z,17.8
2018-10-04T08:44:45.106Z,17.8
2018-10-04T08:45:34.551Z,17.8
2018-10-04T08:46:25.469Z,17.8
2018-10-04T08:47:14.673Z,17.8
2018-10-04T08:48:04.386Z,17.8
2018-10-04T08:48:55.358Z,17.8
2018-10-04T08:49:44.613Z,17.8
2018-10-04T08:50:35.424Z,17.8
2018-10-04T08:51:24.383Z,17.8
2018-10-04T08:52:15.389Z,17.8
2018-10-04T09:08:42.410Z,17.8
2018-10-04T09:09:32.225Z,17.9
2018-10-04T09:10:23.417Z,17.8
2018-10-04T09:11:13.204Z,17.8
2018-10-04T09:12:02.657Z,17.9
2018-10-04T09:12:51.850Z,17.9
2018-10-04T09:13:42.214Z,17.9
2018-10-04T09:14:32.665Z,17.9
2018-10-04T09:15:22.887Z,17.8
2018-10-04T09:16:12.400Z,17.9
2018-10-04T09:17:03.374Z,17.9
2018-10-04T09:17:53.837Z,17.9
2018-10-04T09:18:43.129Z,17.9
2018-10-04T09:19:33.989Z,17.9
2018-10-04T09:20:23.704Z,17.9
2018-10-04T09:21:14.082Z,17.9
2018-10-04T09:22:04.261Z,17.9
2018-10-04T09:22:54.194Z,17.9
2018-10-04T09:23:43.414Z,17.9
2018-10-04T09:24:34.597Z,17.9
2018-10-04T09:25:23.525Z,17.9
2018-10-04T09:26:14.029Z,17.9
2018-10-04T09:27:04.882Z,17.9
2018-10-04T09:27:53.716Z,17.9
2018-10-04T09:28:43.508Z,17.9
2018-10-04T09:29:33.865Z,17.9
2018-10-04T09:30:25.041Z,17.9
2018-10-04T09:31:14.793Z,17.9
2018-10-04T09:32:05.680Z,17.9
2018-10-04T09:32:53.776Z,17.9
2018-10-04T09:33:44.456Z,17.9
2018-10-04T09:34:34.876Z,17.9
2018-10-04T09:35:25.136Z,17.9
2018-10-04T09:36:15.506Z,17.9
2018-10-04T09:37:05.273Z,17.9
2018-10-04T09:37:55.431Z,17.9
2018-10-04T09:38:45.953Z,17.9
2018-10-04T09:39:35.823Z,17.9
2018-10-04T09:40:24.968Z,17.9
2018-10-04T09:41:15.323Z,17.9
2018-10-04T09:42:05.968Z,17.9
2018-10-04T09:42:54.758Z,17.9
2018-10-04T09:43:44.940Z,17.9
2018-10-04T09:44:35.338Z,17.9
2018-10-04T09:45:24.638Z,17.9
2018-10-04T09:46:15.992Z,17.9
2018-10-04T09:47:04.972Z,17.9
2018-10-04T09:47:55.112Z,17.9
2018-10-04T09:48:46.475Z,17.9
2018-10-04T09:49:36.231Z,17.9
2018-10-04T09:50:25.517Z,17.9
2018-10-04T09:51:16.079Z,17.9
2018-10-04T09:52:05.387Z,17.9
2018-10-04T09:52:55.417Z,17.9
2018-10-04T09:53:46.816Z,17.9
2018-10-04T09:54:36.104Z,17.9
2018-10-04T09:55:25.627Z,17.9
2018-10-04T09:56:15.605Z,17.9
2018-10-04T09:57:06.199Z,17.9
2018-10-04T09:57:55.514Z,17.9
2018-10-04T09:58:45.824Z,17.9
2018-10-04T09:59:37.100Z,17.9
2018-10-04T10:00:25.849Z,17.9
2018-10-04T10:01:16.869Z,17.9
2018-10-04T10:02:06.921Z,17.9
2018-10-04T10:02:56.943Z,17.9
2018-10-04T10:03:47.224Z,17.9
2018-10-04T10:04:35.886Z,17.9
2018-10-04T10:05:28.355Z,17.9
2018-10-04T10:06:16.613Z,17.9
2018-10-04T10:07:06.944Z,17.9
2018-10-04T10:07:57.067Z,17.9
2018-10-04T10:08:47.861Z,17.9
2018-10-04T10:09:36.531Z,17.9
2018-10-04T10:10:27.473Z,17.9
2018-10-04T10:11:17.214Z,17.9
2018-10-04T10:12:07.425Z,17.9
2018-10-04T10:12:57.686Z,17.9
2018-10-04T10:13:47.133Z,17.9
2018-10-04T10:14:37.801Z,17.9
2018-10-04T10:15:27.555Z,17.9
2018-10-04T10:16:18.140Z,17.9
2018-10-04T10:17:07.475Z,17.9
2018-10-04T10:17:57.736Z,17.9
2018-10-04T10:18:47.930Z,17.9
2018-10-04T10:19:38.160Z,17.9
2018-10-04T10:20:28.030Z,17.9
2018-10-04T10:21:17.755Z,17.9
2018-10-04T10:22:08.622Z,17.9
2018-10-04T10:22:58.347Z,17.9
2018-10-04T10:23:49.037Z,17.9
2018-10-04T10:24:39.107Z,17.9
2018-10-04T10:25:28.540Z,17.9
2018-10-04T10:26:17.197Z,17.9
2018-10-04T10:27:08.775Z,17.9
2018-10-04T10:27:58.862Z,17.9
2018-10-04T10:28:48.828Z,17.9
2018-10-04T10:29:39.464Z,17.9
2018-10-04T10:30:29.007Z,17.9
2018-10-04T10:31:19.534Z,17.9
2018-10-04T10:32:09.328Z,17.9
2018-10-04T10:32:59.253Z,17.9
2018-10-04T10:33:48.156Z,17.9
2018-10-04T10:34:41.881Z,17.9
2018-10-04T10:35:29.294Z,17.9
2018-10-04T10:36:20.018Z,17.9
2018-10-04T10:37:10.286Z,17.9
2018-10-04T10:38:00.069Z,18
2018-10-04T10:38:49.836Z,17.9
2018-10-04T10:39:38.182Z,17.9
2018-10-04T10:40:32.621Z,17.9
2018-10-04T10:41:20.341Z,17.9
2018-10-04T10:42:09.627Z,17.9
2018-10-04T10:42:59.113Z,17.9
2018-10-04T10:43:49.341Z,18
2018-10-04T10:44:40.103Z,17.9
2018-10-04T10:45:29.581Z,17.9
2018-10-04T10:46:20.318Z,17.9
2018-10-04T10:47:09.586Z,18
2018-10-04T10:47:59.899Z,17.9
2018-10-04T10:48:50.612Z,18
2018-10-04T10:49:40.421Z,18
2018-10-04T10:50:30.149Z,18
2018-10-04T10:51:20.766Z,17.9
2018-10-04T10:52:10.266Z,17.9
2018-10-04T10:53:01.231Z,18
2018-10-04T10:53:50.663Z,18
2018-10-04T10:54:40.483Z,17.9
2018-10-04T10:55:30.615Z,17.9
2018-10-04T10:56:20.629Z,17.9
2018-10-04T10:57:10.896Z,17.9
2018-10-04T10:58:01.299Z,17.9
2018-10-04T10:58:53.067Z,18
2018-10-04T10:59:40.840Z,17.9
2018-10-04T11:00:32.817Z,18
2018-10-04T11:01:22.795Z,17.9
2018-10-04T11:02:11.916Z,18
2018-10-04T11:03:01.703Z,18
2018-10-04T11:03:51.747Z,18
2018-10-04T11:04:41.472Z,18
2018-10-04T11:05:31.613Z,18
2018-10-04T11:06:20.757Z,18
2018-10-04T11:07:13.312Z,18
2018-10-04T11:08:01.418Z,18
2018-10-04T11:08:51.752Z,18
2018-10-04T11:09:41.298Z,18
2018-10-04T11:10:38.463Z,18
2018-10-04T11:11:23.512Z,18
2018-10-04T11:12:12.327Z,18
2018-10-04T11:13:02.619Z,18
2018-10-04T11:13:54.567Z,18
2018-10-04T11:14:42.516Z,18
2018-10-04T11:15:31.140Z,18
2018-10-04T11:16:22.347Z,18
2018-10-04T11:17:13.988Z,18
2018-10-04T11:18:04.719Z,18
2018-10-04T11:18:52.811Z,18
2018-10-04T11:19:43.489Z,18
2018-10-04T11:20:32.909Z,18
2018-10-04T11:21:23.815Z,18
2018-10-04T11:22:13.024Z,18
2018-10-04T11:23:03.444Z,18
2018-10-04T11:23:52.895Z,18
2018-10-04T11:24:43.559Z,18
2018-10-04T11:25:33.299Z,18.1
2018-10-04T11:26:22.785Z,18.1
2018-10-04T11:27:13.771Z,18.1
2018-10-04T11:28:02.636Z,18
2018-10-04T11:28:53.251Z,18.1
2018-10-04T11:29:42.897Z,18.1
2018-10-04T11:30:33.660Z,18
2018-10-04T11:31:22.884Z,18.1
2018-10-04T11:32:13.516Z,18
2018-10-04T11:33:04.813Z,18.1
2018-10-04T11:33:53.952Z,18
2018-10-04T11:34:42.862Z,18.1
2018-10-04T11:35:34.036Z,18.1
2018-10-04T11:36:23.683Z,18.1
2018-10-04T11:37:13.836Z,18.1
2018-10-04T11:38:04.238Z,18.1
2018-10-04T11:38:53.998Z,18.1
2018-10-04T11:39:44.955Z,18.1
2018-10-04T11:40:34.163Z,18.1
2018-10-04T11:41:25.066Z,18.1
2018-10-04T11:42:14.512Z,18.1
2018-10-04T11:43:04.692Z,18.1
2018-10-04T11:43:54.127Z,18.1
2018-10-04T11:44:44.475Z,18.1
2018-10-04T11:45:33.744Z,18.1
2018-10-04T11:46:24.865Z,18.1
2018-10-04T11:47:15.210Z,18.1
2018-10-04T11:48:05.272Z,18.1
2018-10-04T11:48:53.370Z,18.1
2018-10-04T11:49:45.393Z,18.1
2018-10-04T11:50:34.625Z,18.1
2018-10-04T11:51:24.985Z,18.1
2018-10-04T11:52:15.292Z,18.1
2018-10-04T11:53:04.775Z,18.1
2018-10-04T11:53:55.420Z,18.1
2018-10-04T11:54:47.683Z,18.1
2018-10-04T11:55:35.658Z,18.1
2018-10-04T11:56:24.782Z,18.1
2018-10-04T11:57:15.701Z,18.1
2018-10-04T11:58:05.705Z,18.1
2018-10-04T11:58:55.487Z,18.1